Airfield :
LOGIN :

Register | Disclaimer

   EN    FR    IT 

 










Legend :    VFR   Marginal VFR   IFR   Intensive IFR   Very Intensive IFR
Visi :
Ceiling :
>= 8 km
>= 3000ft
5 to 8 km
1000 to 3000 ft
1500m to 5 km
500 to 1000 ft
800 to 1500m
200 to 500 ft
< 800m
< 200 ft
Symbols :   Thunderstorms  Fog  Heavy snow  Heavy precipitations  Wind > 20 kt
SIGMETs :     Misc.  Thunderstorms  Icing  Turbulence  Mountain Waves  Volcanic Ashes







- Airport Elevation : 364 ft
- IATA code : FRA


EDDF - Frankfurt Int.

CURRENT METAR :
  • 190950Z 04015KT 010V070 9999 -SHRA FEW016TCU SCT035 05/00 Q1016 TEMPO 03015G25KT

EXPIRED METARs :
  • 190920Z 04015KT 9999 FEW016 SCT035 05/00 Q1016 TEMPO 03015G25KT 4000 -SNRA
  • 190850Z 03016KT 9999 FEW016 05/00 Q1016 TEMPO 03015G25KT 4000 -SNRA
  • 190820Z 03018KT 9999 FEW016 SCT024 05/01 Q1016 TEMPO 03015G25KT 4000 -SNRA
  • 190750Z 02017KT 9999 FEW016 SCT024 04/01 Q1016 BECMG 03015G25KT
  • 190720Z 02015KT 9999 FEW016 SCT024 04/01 Q1017 NOSIG

TAF TAF EDDF
Valid from the 19 at 06:00 until the 20 at 12:00 UTC


190500Z 1906/2012 03010KT 9999 SCT015
BECMG 1906/1908 05015G25KT
PROB30
TEMPO 1906/1910 4000 -RASN BKN015
TEMPO 1910/1920 4000 -SHRASN BKN012CB
PROB30
TEMPO 1911/1915 2500 SHSNRA
BECMG 1920/1922 05010KT
TEMPO 2010/2012 04015G25KT 4000 -SN BKN012
No reported NOTAMs for that airfield.



MET'MAP, your aeronautical weather chart ! - Copyright ORBIFLY December 2007 - Disclaimer

ORBIFLY MET'MAP TEAM :

Programming & Development : Alexandra Zaïnal
Concept & Development : Baudouin d'Aumeries
Co-Development & Prog : Marc-Olivier Méhu
Technical & hardware support : Manuel Goepfert

Contact : metmap@orbifly.com




SOURCES & CREDITS :

   NOAA